Latest Weather Observations for Cape Wessel

IDD60801

Issued at 6:21 am CST Friday 30 October 2020 (issued every 10 minutes, with the page automatically refreshed every 10 minutes)

About weather observations | Map of weather stations | Latest weather observations for NT | Other Formats
Station Details ID: 200786 Name: CAPE WESSEL Lat: -11.00 Lon: 136.76 Height: 18.0 m
Data from the previous 72 hours. | See also: Recent months at Cape Wessel
Date/Time
CST
Temp
°C
App
Temp
°C
Dew
Point
°C
Rel
Hum
%
Delta-T
°C
Wind Press
QNH
hPa
Press
MSL
hPa
Rain since
9am
mm
Dir  Spd
km/h
Gust
km/h
Spd
kts
Gust
kts
30/06:00am 24.1 28.3 21.0 83 2.0 CALM 0 0 0 0 1010.2 1010.1 0.0
30/05:30am 23.6 27.6 20.5 83 2.0 CALM 0 0 0 0 1009.8 1009.7 0.0
30/05:00am 24.1 28.3 21.0 83 2.0 CALM 0 0 0 0 1009.6 1009.5 0.0
30/04:30am 23.5 27.3 20.2 82 2.1 CALM 0 0 0 0 1009.5 1009.4 0.0
30/04:00am 23.8 27.0 20.5 82 2.1 SSE 4 6 2 3 1009.5 1009.4 0.0
30/03:30am 24.8 27.2 20.9 79 2.6 SSE 9 9 5 5 1009.4 1009.3 0.0
30/03:00am 25.4 28.1 21.3 78 2.7 SSE 9 11 5 6 1009.6 1009.5 0.0
30/02:30am 25.9 28.1 21.1 75 3.2 SE 11 13 6 7 1009.9 1009.8 0.0
30/02:00am 26.4 28.6 21.2 73 3.4 ESE 11 15 6 8 1010.3 1010.2 0.0
30/01:30am 27.0 28.5 21.3 71 3.8 SE 15 19 8 10 1010.5 1010.4 0.0
30/01:00am 27.3 28.6 21.6 71 3.8 SE 17 20 9 11 1010.7 1010.6 0.0
30/12:30am 27.4 28.2 21.4 70 4.0 SE 19 24 10 13 1011.0 1010.9 0.0
30/12:00am 27.5 28.5 21.8 71 3.8 SE 19 22 10 12 1011.3 1011.2 0.0
 
Date/Time
CST
Temp
°C
App
Temp
°C
Dew
Point
°C
Rel
Hum
%
Delta-T
°C
Wind Press
QNH
hPa
Press
MSL
hPa
Rain since
9am
mm
Dir  Spd
km/h
Gust
km/h
Spd
kts
Gust
kts
29/11:30pm 27.7 28.5 21.7 70 4.0 ESE 20 24 11 13 1011.5 1011.4 0.0
29/11:00pm 27.7 28.9 22.2 72 3.7 SE 19 24 10 13 1011.6 1011.5 0.0
29/10:30pm 27.8 29.3 23.0 75 3.3 SE 20 26 11 14 1011.8 1011.7 0.0
29/10:00pm 28.0 28.7 22.9 74 3.5 SSE 24 30 13 16 1011.7 1011.6 0.0
29/09:30pm 27.9 28.7 22.4 72 3.7 SE 22 28 12 15 1011.6 1011.5 0.0
29/09:00pm 28.2 30.0 23.6 76 3.2 SE 20 26 11 14 1011.2 1011.1 0.0
29/08:30pm 28.2 29.5 23.3 75 3.4 SSE 22 30 12 16 1011.0 1010.9 0.0
29/08:00pm 28.4 29.6 23.8 76 3.2 SSE 24 30 13 16 1010.9 1010.8 0.0
29/07:30pm 28.4 29.5 22.4 70 4.1 SSE 20 26 11 14 1010.5 1010.4 0.0
29/07:00pm 28.5 29.6 23.0 72 3.8 SE 22 30 12 16 1010.3 1010.2 0.0
29/06:30pm 28.6 30.4 23.3 73 3.6 SE 19 26 10 14 1010.2 1010.1 0.0
29/06:00pm 29.1 31.4 23.5 72 3.9 SSE 17 20 9 11 1009.9 1009.8 0.0
29/05:30pm 29.8 32.4 23.3 68 4.5 SE 15 20 8 11 1009.5 1009.4 0.0
29/05:00pm 30.3 33.2 23.2 65 4.9 SE 13 17 7 9 1009.4 1009.3 0.0
29/04:30pm 31.2 34.0 23.6 64 5.3 SE 15 19 8 10 1009.5 1009.4 0.0
29/04:00pm 30.5 33.8 23.2 65 5.0 ESE 11 15 6 8 1009.6 1009.5 0.0
29/03:30pm 31.5 34.4 23.1 61 5.8 ENE 13 17 7 9 1009.5 1009.4 0.0
29/03:00pm 31.2 34.2 23.3 63 5.5 ENE 13 17 7 9 1009.7 1009.6 0.0
29/02:30pm 31.7 34.3 22.7 59 6.2 ENE 13 17 7 9 1010.0 1009.9 0.0
29/02:00pm 32.9 35.4 23.2 56 6.7 ENE 15 19 8 10 1010.4 1010.3 0.0
29/01:30pm 32.9 35.6 23.5 57 6.5 E 15 19 8 10 1010.9 1010.8 0.0
29/01:00pm 33.0 35.2 23.3 56 6.7 E 17 20 9 11 1011.3 1011.2 0.0
29/12:30pm 34.1 36.8 24.1 56 7.0 ESE 17 20 9 11 1011.8 1011.7 0.0
29/12:00pm 34.0 36.7 23.4 54 7.4 ESE 15 19 8 10 1012.1 1012.0 0.0
29/11:30am 33.8 36.7 23.8 56 7.0 ESE 15 19 8 10 1012.5 1012.4 0.0
29/11:00am 33.6 36.7 23.6 56 7.0 ESE 13 17 7 9 1012.8 1012.7 0.0
29/10:30am 33.3 36.3 23.3 55 6.9 ESE 13 15 7 8 1013.0 1012.9 0.0
29/10:00am 32.7 36.4 23.9 60 6.1 ESE 11 15 6 8 1013.2 1013.1 0.0
29/09:30am 31.9 34.8 23.2 60 6.0 ESE 13 15 7 8 1013.4 1013.3 0.0
29/09:00am 31.7 35.5 24.0 63 5.4 ESE 11 15 6 8 1013.5 1013.4 0.0
29/08:30am 31.3 35.3 23.7 64 5.3 ESE 9 13 5 7 1013.4 1013.3 0.0
29/08:00am 31.2 34.8 23.8 64 5.1 ESE 11 15 6 8 1013.3 1013.2 0.0
29/07:30am 29.3 32.5 23.0 69 4.3 ESE 11 13 6 7 1013.1 1013.0 0.0
29/07:00am 29.6 33.0 23.3 69 4.3 ESE 11 15 6 8 1012.6 1012.5 0.0
29/06:30am 28.3 31.6 23.2 74 3.5 ESE 11 15 6 8 1012.4 1012.3 0.0
29/06:00am 27.1 29.9 23.6 81 2.4 SE 15 17 8 9 1012.2 1012.1 0.0
29/05:30am 26.6 29.6 23.3 82 2.3 SSE 13 17 7 9 1011.9 1011.8 0.0
29/05:00am 26.2 29.3 22.9 82 2.2 SE 11 15 6 8 1011.4 1011.3 0.0
29/04:30am 26.0 29.2 23.1 84 2.0 SE 11 13 6 7 1010.9 1010.8 0.0
29/04:00am 25.8 29.4 23.1 85 1.8 SE 9 11 5 6 1010.5 1010.4 0.0
29/03:30am 26.3 30.6 23.6 85 1.8 ESE 7 9 4 5 1010.3 1010.2 0.0
29/03:00am 26.8 30.7 24.3 86 1.7 SE 11 15 6 8 1010.4 1010.3 0.0
29/02:30am 26.7 30.5 24.0 85 1.9 SSE 11 13 6 7 1010.8 1010.7 0.0
29/02:00am 26.8 30.1 23.9 84 2.0 SSE 13 17 7 9 1011.0 1010.9 0.0
29/01:30am 26.5 29.5 23.4 83 2.1 SSE 13 15 7 8 1011.3 1011.2 0.0
29/01:00am 26.7 30.8 24.0 85 1.9 SSE 9 13 5 7 1011.7 1011.6 0.0
29/12:30am 26.7 30.3 23.8 84 2.0 SSE 11 13 6 7 1012.0 1011.9 0.0
29/12:00am 26.8 30.6 23.5 82 2.3 SE 9 13 5 7 1012.5 1012.4 0.0
 
Date/Time
CST
Temp
°C
App
Temp
°C
Dew
Point
°C
Rel
Hum
%
Delta-T
°C
Wind Press
QNH
hPa
Press
MSL
hPa
Rain since
9am
mm
Dir  Spd
km/h
Gust
km/h
Spd
kts
Gust
kts
28/11:30pm 27.2 30.9 23.9 82 2.3 SE 11 15 6 8 1013.0 1012.9 0.0
28/11:00pm 27.4 30.7 23.8 81 2.5 ESE 13 15 7 8 1013.3 1013.2 0.0
28/10:30pm 27.5 30.7 23.7 80 2.6 ESE 13 17 7 9 1013.6 1013.5 0.0
28/10:00pm 27.8 30.5 24.2 81 2.5 SE 17 19 9 10 1013.6 1013.5 0.0
28/09:30pm 27.7 30.9 24.3 82 2.4 SE 15 20 8 11 1013.4 1013.3 0.0
28/09:00pm 27.4 30.7 23.8 81 2.5 E 13 15 7 8 1013.1 1013.0 0.0
28/08:30pm 27.7 31.2 23.5 78 2.9 E 11 17 6 9 1012.6 1012.5 0.0
28/08:00pm 27.5 30.9 23.3 78 2.9 E 11 15 6 8 1012.2 1012.1 0.0
28/07:30pm 27.6 30.9 23.2 77 3.0 E 11 13 6 7 1012.0 1011.9 0.0
28/07:00pm 28.0 31.4 23.4 76 3.2 ENE 11 11 6 6 1011.9 1011.8 0.0
28/06:30pm 28.4 31.9 23.5 75 3.4 ENE 11 13 6 7 1011.5 1011.4 0.0
28/06:00pm 29.4 33.0 23.8 72 3.9 ENE 11 15 6 8 1011.2 1011.1 0.0
28/05:30pm 29.9 33.4 23.6 69 4.4 ENE 11 15 6 8 1010.8 1010.7 0.0
28/05:00pm 30.2 33.4 23.1 65 4.9 ENE 11 13 6 7 1010.6 1010.5 0.0
28/04:30pm 30.9 34.3 23.3 64 5.2 ENE 11 13 6 7 1010.4 1010.3 0.0
28/04:00pm 31.7 35.0 23.8 63 5.5 NE 13 17 7 9 1010.1 1010.0 0.0
28/03:30pm 31.7 34.2 23.2 60 5.9 NE 15 19 8 10 1010.0 1009.9 0.0
28/03:00pm 32.4 35.4 23.4 59 6.2 NE 13 17 7 9 1010.5 1010.4 0.0
28/02:30pm 32.8 35.3 23.2 57 6.6 ENE 15 17 8 9 1010.8 1010.7 0.0
28/02:00pm 32.2 34.7 23.2 59 6.2 ENE 15 19 8 10 1011.4 1011.3 0.0
28/01:30pm 33.4 36.2 23.7 56 6.8 ENE 15 20 8 11 1011.9 1011.8 0.0
28/01:00pm 33.3 36.1 23.6 56 6.7 ENE 15 20 8 11 1012.5 1012.4 0.0
28/12:30pm 33.5 35.7 23.2 54 7.1 ENE 17 20 9 11 1012.9 1012.8 0.0
28/12:00pm 33.5 35.5 22.9 53 7.3 ENE 17 20 9 11 1013.1 1013.0 0.0
28/11:30am 33.1 35.0 23.4 56 6.7 ENE 19 24 10 13 1013.4 1013.3 0.0
28/11:00am 32.9 35.4 23.8 58 6.3 ENE 17 20 9 11 1013.5 1013.4 0.0
28/10:30am 32.8 34.9 23.7 58 6.3 E 19 22 10 12 1013.9 1013.8 0.0
28/10:00am 32.0 33.8 23.5 60 5.9 E 20 24 11 13 1014.1 1014.0 0.0
28/09:30am 32.7 35.4 24.2 61 5.9 E 17 22 9 12 1014.2 1014.1 0.0
28/09:00am 32.2 34.1 23.4 59 6.1 E 19 24 10 13 1014.2 1014.1 0.0
28/08:30am 31.2 33.5 24.1 66 4.9 E 19 24 10 13 1013.8 1013.7 0.0
28/08:00am 30.7 32.9 23.9 67 4.7 E 19 22 10 12 1013.7 1013.6 0.0
28/07:30am 29.6 32.0 24.2 73 3.8 ESE 19 24 10 13 1013.2 1013.1 0.0
28/07:00am 29.1 32.1 24.7 77 3.1 ESE 17 20 9 11 1012.6 1012.5 0.0
28/06:30am 27.2 30.9 24.5 85 1.9 SE 13 17 7 9 1012.1 1012.0 0.0
28/06:00am 26.4 30.1 23.9 86 1.7 SE 11 13 6 7 1011.8 1011.7 0.0
28/05:30am 26.0 29.6 23.1 84 2.0 ESE 9 11 5 6 1011.4 1011.3 0.0
28/05:00am 26.1 29.8 23.2 84 2.0 ESE 9 13 5 7 1011.1 1011.0 0.0
28/04:30am 26.4 30.4 23.7 85 1.9 ESE 9 11 5 6 1010.6 1010.5 0.0
28/04:00am 26.8 30.4 23.7 83 2.1 ESE 11 15 6 8 1010.6 1010.5 0.0
28/03:30am 26.7 30.3 23.8 84 2.0 SE 11 15 6 8 1010.5 1010.4 0.0
28/03:00am 26.7 29.8 23.6 83 2.1 SE 13 17 7 9 1010.6 1010.5 0.0
28/02:30am 26.7 30.0 23.8 84 2.0 SE 13 17 7 9 1010.9 1010.8 0.0
28/02:00am 26.9 30.4 24.2 85 1.9 SE 13 17 7 9 1011.0 1010.9 0.0
28/01:30am 26.9 30.4 24.2 85 1.9 SE 13 17 7 9 1011.1 1011.0 0.0
28/01:00am 27.0 30.3 23.9 83 2.1 ESE 13 17 7 9 1011.3 1011.2 0.0
28/12:30am 27.1 30.6 24.2 84 2.0 ESE 13 17 7 9 1011.3 1011.2 0.0
28/12:00am 27.2 30.8 24.3 84 2.0 E 13 17 7 9 1011.6 1011.5 0.0
 
Date/Time
CST
Temp
°C
App
Temp
°C
Dew
Point
°C
Rel
Hum
%
Delta-T
°C
Wind Press
QNH
hPa
Press
MSL
hPa
Rain since
9am
mm
Dir  Spd
km/h
Gust
km/h
Spd
kts
Gust
kts
27/11:30pm 27.2 30.0 23.7 81 2.4 E 15 19 8 10 1011.8 1011.7 0.0
27/11:00pm 27.3 30.7 24.0 82 2.3 E 13 17 7 9 1011.7 1011.6 0.0
27/10:30pm 27.4 30.1 23.4 79 2.7 E 15 19 8 10 1011.6 1011.5 0.0
27/10:00pm 27.5 30.1 23.9 81 2.5 E 17 20 9 11 1011.3 1011.2 0.0
27/09:30pm 27.6 29.7 23.8 80 2.6 E 19 22 10 12 1011.0 1010.9 0.0
27/09:00pm 27.6 30.0 23.6 79 2.7 E 17 20 9 11 1010.7 1010.6 0.0
27/08:30pm 27.6 29.3 23.4 78 2.9 E 20 24 11 13 1010.3 1010.2 0.0
27/08:00pm 27.7 29.6 23.5 78 2.9 ESE 19 22 10 12 1010.2 1010.1 0.0
27/07:30pm 27.8 29.9 23.8 79 2.8 ESE 19 22 10 12 1009.7 1009.6 0.0
27/07:00pm 28.0 30.4 24.2 80 2.6 ESE 19 20 10 11 1009.6 1009.5 0.0
27/06:30pm 28.2 30.4 24.0 78 2.9 ESE 19 24 10 13 1009.2 1009.1 0.0
27/06:00pm 28.7 30.6 23.8 75 3.4 ESE 20 26 11 14 1008.7 1008.6 0.0
27/05:30pm 29.5 31.6 23.7 71 4.0 ESE 19 24 10 13 1008.3 1008.2 0.0
27/05:00pm 30.4 32.5 23.8 68 4.6 ESE 19 22 10 12 1008.1 1008.0 0.0
27/04:30pm 31.6 33.7 23.7 63 5.5 ESE 19 24 10 13 1008.1 1008.0 0.0
27/04:00pm 31.6 34.3 23.4 61 5.7 ESE 15 19 8 10 1008.3 1008.2 0.0
27/03:30pm 32.7 35.3 23.9 60 6.1 ESE 17 22 9 12 1008.6 1008.5 0.0
27/03:00pm 32.8 34.5 23.4 57 6.5 ESE 20 26 11 14 1008.6 1008.5 0.0
27/02:30pm 33.2 35.1 23.5 56 6.7 ESE 19 24 10 13 1009.0 1008.9 0.0
27/02:00pm 34.0 36.2 24.0 56 7.0 ESE 19 24 10 13 1009.5 1009.4 0.0
27/01:30pm 33.9 36.1 24.2 57 6.8 ESE 20 24 11 13 1010.0 1009.9 0.0
27/01:00pm 33.8 35.9 23.8 56 7.0 ESE 19 24 10 13 1010.4 1010.3 0.0
27/12:30pm 34.1 36.9 24.9 58 6.5 ESE 19 22 10 12 1010.8 1010.7 0.0
27/12:00pm 33.0 35.2 23.9 59 6.4 ESE 19 22 10 12 1011.3 1011.2 0.0
27/11:30am 33.4 35.4 24.0 58 6.6 SE 20 26 11 14 1011.5 1011.4 0.0
27/11:00am 33.7 35.8 23.7 56 7.0 SE 19 24 10 13 1011.8 1011.7 0.0
27/10:30am 33.4 35.3 23.4 55 6.9 SE 19 24 10 13 1012.1 1012.0 0.0
27/10:00am 33.4 34.7 23.4 55 6.9 SE 22 26 12 14 1012.3 1012.2 0.0
27/09:30am 33.3 35.5 24.2 59 6.4 SE 20 24 11 13 1012.3 1012.2 0.0
27/09:00am 32.8 35.4 24.6 62 5.8 SE 19 24 10 13 1012.2 1012.1 0.0
27/08:30am 31.9 34.4 24.5 65 5.2 SE 19 22 10 12 1012.0 1011.9 0.0
27/08:00am 30.8 33.0 24.0 67 4.7 SE 19 24 10 13 1012.1 1012.0 0.0
27/07:30am 29.5 31.7 23.9 72 3.9 SE 19 24 10 13 1011.8 1011.7 0.0
27/07:00am 28.1 30.4 24.1 79 2.8 SE 19 24 10 13 1011.5 1011.4 0.0
27/06:30am 27.2 30.5 24.5 85 1.9 SE 15 20 8 11 1011.0 1010.9 0.0

Other formats

Comma delimited format used in spreadsheet applications
http://www.bom.gov.au/fwo/IDD60801/IDD60801.94147.axf

JavaScript Object Notation format (JSON) in row-major order
http://www.bom.gov.au/fwo/IDD60801/IDD60801.94147.json

Data quality

Most of these data are generated automatically and are frequently updated. Quality checks on data are not normally performed. It is possible for incorrect values to appear. Refer to information at About Latest Weather Observations and please check the disclaimer before using these data.